Time;durP1;ratioP1;P1;durP2;ratioP2;P2;SDS_P1;SDS_P2;PMS_P1;PMS_P2;Temp;Humidity;BMP_temperature;BMP_pressure;BME280_temperature;BME280_humidity;BME280_pressure;Samples;Min_cycle;Max_cycle;Signal;HPM_P1;HPM_P2
2022/05/24 00:02:45;;;;;;;;;8.60;8.00;;;;;16.51;47.29;98082.13;6287415;27;96378;-72
2022/05/24 00:05:50;;;;;;;;;10.00;9.50;;;;;16.54;47.37;98094.34;6263669;27;97763;-71
2022/05/24 00:08:53;;;;;;;;;8.60;8.00;;;;;16.45;47.43;98092.19;6288327;27;96362;-70
2022/05/24 00:11:56;;;;;;;;;8.00;7.00;;;;;16.35;48.00;98100.41;6288710;27;97467;-70
2022/05/24 00:18:24;;;;;;;;;9.00;8.00;;;;;16.35;47.77;98105.84;6287985;27;97486;-70
2022/05/24 00:21:28;;;;;;;;;8.40;8.00;;;;;16.33;48.02;98115.34;6288767;27;97997;-71
2022/05/24 00:24:31;;;;;;;;;11.00;10.40;;;;;16.37;47.83;98102.84;6288020;27;96667;-70
2022/05/24 00:27:35;;;;;;;;;8.00;8.00;;;;;16.45;47.70;98105.00;6270013;27;97484;-69
2022/05/24 00:30:41;;;;;;;;;10.00;9.00;;;;;16.52;47.71;98102.75;6269103;27;97493;-69
2022/05/24 00:33:45;;;;;;;;;10.00;9.00;;;;;16.58;47.60;98098.97;6269113;27;98915;-72
2022/05/24 00:36:48;;;;;;;;;8.00;7.00;;;;;16.63;47.68;98095.41;6287361;27;98822;-72
2022/05/24 00:39:51;;;;;;;;;9.00;8.25;;;;;16.64;47.55;98099.75;6286965;27;97943;-71
2022/05/24 00:42:55;;;;;;;;;8.00;8.00;;;;;16.65;47.59;98101.41;6288384;27;96518;-72
2022/05/24 00:46:04;;;;;;;;;8.20;8.00;;;;;16.71;47.27;98103.00;6287744;27;97404;-71
2022/05/24 00:49:13;;;;;;;;;10.50;8.00;;;;;16.47;47.32;98067.41;6288041;27;97581;-72
2022/05/24 00:52:19;;;;;;;;;9.00;9.00;;;;;16.59;47.59;98097.88;6287540;27;97853;-71
2022/05/24 00:55:26;;;;;;;;;7.00;7.00;;;;;16.50;47.77;98085.91;6269288;27;96334;-71
2022/05/24 00:58:39;;;;;;;;;7.80;7.80;;;;;16.60;47.58;98093.25;6268350;27;98958;-70
2022/05/24 01:01:47;;;;;;;;;9.00;8.00;;;;;16.57;47.55;98080.97;6268955;27;97526;-72
2022/05/24 01:04:50;;;;;;;;;8.80;8.00;;;;;16.50;47.92;98075.03;6269595;27;97635;-72
2022/05/24 01:07:54;;;;;;;;;9.50;8.50;;;;;16.53;47.82;98069.03;6287423;27;97565;-73
2022/05/24 01:10:58;;;;;;;;;7.25;7.25;;;;;16.40;48.43;98070.47;6251807;27;97541;-71
2022/05/24 01:14:03;;;;;;;;;7.00;7.00;;;;;16.33;48.59;98063.69;6268830;27;97397;-70
2022/05/24 01:17:09;;;;;;;;;10.00;9.00;;;;;16.30;48.48;98064.25;6269237;27;98283;-69
2022/05/24 01:20:13;;;;;;;;;9.60;8.00;;;;;16.32;48.58;98059.34;6292265;27;96528;-69
2022/05/24 01:23:36;;;;;;;;;8.80;8.00;;;;;16.28;48.74;98063.69;6291857;27;96767;-71
2022/05/24 01:26:47;;;;;;;;;8.00;8.00;;;;;16.36;48.50;98068.56;6292482;27;97485;-71
2022/05/24 01:29:51;;;;;;;;;9.40;9.00;;;;;16.32;48.60;98065.56;6273995;27;96588;-70
2022/05/24 01:36:16;;;;;;;;;9.20;8.00;;;;;16.33;48.46;98060.97;6291255;27;96622;-71
2022/05/24 01:39:20;;;;;;;;;8.00;8.00;;;;;16.25;48.81;98054.19;6291421;27;97203;-70
2022/05/24 01:42:25;;;;;;;;;9.00;8.25;;;;;16.26;48.86;98055.84;6255181;27;99544;-70
2022/05/24 01:45:35;;;;;;;;;8.00;8.00;;;;;16.07;48.77;98021.38;6288760;27;96992;-70
2022/05/24 01:48:43;;;;;;;;;8.00;8.00;;;;;16.25;48.97;98048.75;6287333;27;97167;-71
2022/05/24 01:51:54;;;;;;;;;9.00;9.00;;;;;16.32;48.71;98043.81;6290756;27;96676;-70
2022/05/24 01:55:03;;;;;;;;;8.50;8.50;;;;;16.39;48.62;98047.06;6291126;27;96745;-72
2022/05/24 01:58:13;;;;;;;;;9.00;8.00;;;;;16.39;48.64;98041.63;6273512;27;98105;-72
2022/05/24 02:01:26;;;;;;;;;8.00;6.40;;;;;16.33;48.86;98042.72;6290871;27;96785;-70
2022/05/24 02:04:33;;;;;;;;;9.00;9.00;;;;;16.40;48.56;98045.97;6289122;27;97984;-70
2022/05/24 02:07:37;;;;;;;;;7.50;7.50;;;;;16.28;49.10;98042.75;6290923;27;97093;-68
2022/05/24 02:10:47;;;;;;;;;8.00;7.80;;;;;16.37;48.62;98051.16;6290555;27;97826;-69
2022/05/24 02:13:57;;;;;;;;;7.40;7.00;;;;;16.38;48.79;98039.19;6289633;27;97108;-70
2022/05/24 02:17:04;;;;;;;;;12.00;9.00;;;;;16.44;48.63;98038.06;6272440;27;98559;-69
2022/05/24 02:20:11;;;;;;;;;8.00;7.40;;;;;16.41;48.60;98038.63;6272138;27;99550;-70
2022/05/24 02:23:17;;;;;;;;;9.80;8.80;;;;;16.29;49.13;98022.63;6271923;27;97099;-70
2022/05/24 02:26:22;;;;;;;;;9.00;8.60;;;;;16.02;49.46;98014.88;6271957;27;99487;-69
2022/05/24 02:29:27;;;;;;;;;10.00;9.00;;;;;16.18;49.22;98028.38;6276702;27;97149;-69
2022/05/24 02:32:30;;;;;;;;;9.40;8.00;;;;;16.04;49.64;98009.97;6270427;27;96732;-71
2022/05/24 02:35:34;;;;;;;;;10.00;9.00;;;;;16.10;49.49;98015.38;6268631;27;97079;-69
2022/05/24 02:38:37;;;;;;;;;9.00;8.00;;;;;16.07;49.62;98029.53;6265010;27;96920;-71
2022/05/24 02:41:40;;;;;;;;;9.00;8.00;;;;;16.14;49.50;98038.19;6247544;27;98595;-70
2022/05/24 02:44:45;;;;;;;;;8.80;8.40;;;;;16.15;49.30;98021.59;6271404;27;97027;-72
2022/05/24 02:47:50;;;;;;;;;10.00;9.00;;;;;16.25;49.06;98024.28;6289168;27;96444;-70
2022/05/24 02:50:53;;;;;;;;;7.00;7.00;;;;;16.29;49.00;98025.34;6290480;27;97257;-70
2022/05/24 02:53:57;;;;;;;;;8.80;8.80;;;;;16.33;48.94;98025.59;6262479;27;97805;-70
2022/05/24 02:57:01;;;;;;;;;8.50;8.00;;;;;16.31;48.88;98017.75;6258239;27;98131;-70
2022/05/24 03:00:11;;;;;;;;;9.00;9.00;;;;;16.34;48.81;98024.50;6270115;27;97461;-69
2022/05/24 03:03:14;;;;;;;;;9.00;8.00;;;;;16.34;48.82;98025.31;6274408;27;97436;-71
2022/05/24 03:06:19;;;;;;;;;9.00;8.20;;;;;16.39;48.70;98022.59;6289443;27;97979;-69
2022/05/24 03:09:36;;;;;;;;;8.00;7.40;;;;;16.37;48.94;98018.53;6271511;27;96606;-69
2022/05/24 03:16:09;;;;;;;;;8.80;8.20;;;;;16.42;48.72;98018.47;6289026;27;96574;-70
2022/05/24 03:19:12;;;;;;;;;7.40;7.00;;;;;16.35;48.87;98023.41;6288346;27;96432;-71
2022/05/24 03:22:16;;;;;;;;;10.20;9.00;;;;;16.36;48.71;98022.34;6268202;27;98113;-72
2022/05/24 03:25:19;;;;;;;;;9.00;7.00;;;;;16.35;48.73;98016.06;6270782;27;98639;-70
2022/05/24 03:28:23;;;;;;;;;8.60;8.00;;;;;16.23;49.08;98018.31;6271354;27;97064;-70
2022/05/24 03:31:28;;;;;;;;;9.00;8.00;;;;;16.26;48.95;98020.47;6287800;27;97513;-70
2022/05/24 03:34:35;;;;;;;;;10.00;9.00;;;;;16.27;48.95;98005.75;6253975;27;97941;-71
2022/05/24 03:37:38;;;;;;;;;9.20;9.00;;;;;16.31;48.92;98022.34;6250082;27;98896;-72
2022/05/24 03:40:41;;;;;;;;;9.60;9.00;;;;;16.37;48.78;98015.81;6270168;27;96536;-69
2022/05/24 03:43:45;;;;;;;;;7.00;7.00;;;;;16.30;48.83;98012.56;6267738;27;97234;-70
2022/05/24 03:46:50;;;;;;;;;8.00;8.00;;;;;16.33;48.96;98022.88;6283038;27;97412;-70
2022/05/24 03:49:53;;;;;;;;;9.00;9.00;;;;;16.28;49.03;98028.34;6287262;27;97667;-70
2022/05/24 03:52:57;;;;;;;;;8.00;7.60;;;;;16.32;48.98;98022.06;6263912;27;99026;-70
2022/05/24 03:56:01;;;;;;;;;10.00;10.00;;;;;16.36;48.84;98030.50;6270704;27;96483;-71
2022/05/24 03:59:04;;;;;;;;;8.00;8.00;;;;;16.39;48.91;98021.75;6269781;27;99520;-71
2022/05/24 04:02:09;;;;;;;;;8.00;7.00;;;;;16.55;48.66;98033.38;6286015;27;97868;-70
2022/05/24 04:05:13;;;;;;;;;7.20;6.80;;;;;16.59;48.48;98032.56;6264916;27;97027;-72
2022/05/24 04:08:18;;;;;;;;;8.00;8.00;;;;;16.54;48.69;98026.31;6265907;27;97997;-70
2022/05/24 04:11:21;;;;;;;;;7.00;6.75;;;;;16.63;48.31;98035.53;6285858;27;98074;-72
2022/05/24 04:14:24;;;;;;;;;9.00;8.00;;;;;16.61;48.43;98032.31;6265803;27;96936;-69
2022/05/24 04:17:29;;;;;;;;;8.00;7.60;;;;;16.59;48.68;98029.84;6284746;27;96510;-70
2022/05/24 04:20:32;;;;;;;;;8.00;7.40;;;;;16.73;48.51;98030.03;6247179;27;99547;-71
2022/05/24 04:23:36;;;;;;;;;8.60;8.00;;;;;16.77;48.25;98015.56;6287537;27;97362;-70
2022/05/24 04:26:40;;;;;;;;;10.20;9.20;;;;;16.95;47.93;98024.19;6287748;27;96703;-70
2022/05/24 04:29:44;;;;;;;;;8.00;8.00;;;;;16.98;47.77;98024.41;6287821;27;97530;-70
2022/05/24 04:32:48;;;;;;;;;8.00;8.00;;;;;16.92;47.82;98028.25;6269208;27;100115;-71
2022/05/24 04:35:52;;;;;;;;;9.00;8.00;;;;;16.97;47.81;98021.97;6279568;27;97421;-72
2022/05/24 04:38:55;;;;;;;;;8.80;8.00;;;;;16.87;47.61;97998.34;6283364;27;97451;-70
2022/05/24 04:45:20;;;;;;;;;10.00;9.00;;;;;17.18;47.46;98032.44;6262370;27;97184;-70
2022/05/24 04:48:24;;;;;;;;;8.40;8.00;;;;;17.24;47.21;98030.47;6276624;27;96933;-70
2022/05/24 04:51:28;;;;;;;;;9.00;8.40;;;;;17.30;47.19;98037.50;6286507;27;97837;-69
2022/05/24 04:54:32;;;;;;;;;9.00;8.00;;;;;17.38;46.94;98047.78;6268819;27;97973;-69
2022/05/24 04:57:35;;;;;;;;;8.80;8.00;;;;;17.33;47.13;98051.38;6284189;27;97606;-72
2022/05/24 05:00:38;;;;;;;;;8.00;8.00;;;;;17.33;47.22;98048.66;6268657;27;98931;-72
2022/05/24 05:03:44;;;;;;;;;8.25;8.00;;;;;17.37;47.12;98056.25;6284196;27;97511;-70
2022/05/24 05:06:48;;;;;;;;;9.00;8.80;;;;;17.46;46.92;98052.63;6272025;27;97511;-69
2022/05/24 05:09:51;;;;;;;;;8.60;8.00;;;;;17.53;47.06;98052.28;6259973;27;96427;-70
2022/05/24 05:12:55;;;;;;;;;10.00;9.00;;;;;17.56;46.89;98047.06;6283075;27;97555;-70
2022/05/24 05:15:59;;;;;;;;;10.00;9.20;;;;;17.53;47.02;98044.13;6287168;27;97582;-69
2022/05/24 05:19:04;;;;;;;;;8.00;7.40;;;;;17.52;46.99;98042.47;6286185;27;96728;-72
2022/05/24 05:22:08;;;;;;;;;9.50;8.50;;;;;17.63;47.15;98047.59;6259252;27;99404;-70
2022/05/24 05:25:11;;;;;;;;;9.00;8.40;;;;;17.77;46.59;98049.63;6266786;27;96477;-71
2022/05/24 05:28:18;;;;;;;;;10.00;9.00;;;;;17.88;46.55;98060.16;6263169;27;98308;-71
2022/05/24 05:31:22;;;;;;;;;9.50;8.00;;;;;17.96;46.25;98059.50;6285439;27;97406;-71
2022/05/24 05:34:27;;;;;;;;;11.00;9.00;;;;;18.08;46.22;98053.66;6263830;27;96670;-71
2022/05/24 05:37:32;;;;;;;;;12.00;9.80;;;;;18.25;46.34;98054.00;6284662;27;96511;-69
2022/05/24 05:40:36;;;;;;;;;9.00;8.00;;;;;18.39;45.78;98054.09;6247771;27;97821;-71
2022/05/24 05:43:39;;;;;;;;;8.25;8.25;;;;;18.37;45.52;98056.31;6282507;27;98478;-70
2022/05/24 05:46:42;;;;;;;;;9.60;9.00;;;;;18.36;45.51;98054.69;6285157;27;96980;-70
2022/05/24 05:49:47;;;;;;;;;10.60;9.00;;;;;18.38;45.84;98057.91;6268610;27;97502;-70
2022/05/24 05:52:53;;;;;;;;;11.67;10.67;;;;;18.36;45.73;98051.94;6250825;27;97089;-71
2022/05/24 05:55:56;;;;;;;;;10.00;10.00;;;;;18.44;45.84;98040.38;6268500;27;97637;-70
2022/05/24 05:59:00;;;;;;;;;12.00;10.00;;;;;18.57;45.68;98050.59;6268044;27;97586;-70
2022/05/24 06:02:05;;;;;;;;;9.00;7.50;;;;;18.70;45.14;98054.53;6268404;27;96358;-70
2022/05/24 06:05:11;;;;;;;;;10.00;9.40;;;;;18.87;45.19;98052.09;6289748;27;97473;-71
2022/05/24 06:08:14;;;;;;;;;11.00;10.00;;;;;19.14;44.91;98051.41;6272370;27;99684;-73
2022/05/24 06:11:23;;;;;;;;;9.40;8.60;;;;;19.36;44.74;98057.06;6291278;27;97293;-71
2022/05/24 06:14:27;;;;;;;;;10.80;8.80;;;;;19.51;44.36;98058.75;6290432;27;97086;-72
2022/05/24 06:17:53;;;;;;;;;10.60;9.60;;;;;19.57;43.94;98063.84;6290909;27;96632;-71
2022/05/24 06:21:00;;;;;;;;;9.40;8.40;;;;;19.63;43.70;98056.38;6272754;27;97117;-71
2022/05/24 06:24:05;;;;;;;;;11.00;9.20;;;;;19.81;43.87;98063.69;6290596;27;96453;-72
2022/05/24 06:27:09;;;;;;;;;10.00;9.00;;;;;20.03;43.43;98071.25;6272720;27;97015;-70
2022/05/24 06:30:13;;;;;;;;;11.80;10.00;;;;;20.29;43.96;98073.16;6271522;27;96721;-72
2022/05/24 06:33:17;;;;;;;;;12.60;9.00;;;;;20.60;43.80;98072.56;6272415;27;96678;-72
2022/05/24 06:36:21;;;;;;;;;10.00;8.60;;;;;20.89;42.79;98074.94;6290654;27;97563;-71
2022/05/24 06:39:27;;;;;;;;;9.00;8.00;;;;;21.07;41.36;98082.19;6290543;27;96699;-70
2022/05/24 06:42:35;;;;;;;;;9.60;9.40;;;;;21.19;41.82;98082.50;6272521;27;96464;-69
2022/05/24 06:45:38;;;;;;;;;9.00;9.00;;;;;21.27;41.68;98083.69;6290630;27;97523;-72
2022/05/24 06:48:43;;;;;;;;;11.00;9.00;;;;;21.39;41.24;98086.69;6271801;27;96699;-71
2022/05/24 06:51:48;;;;;;;;;10.00;9.00;;;;;21.30;40.73;98080.34;6290260;27;97238;-71
2022/05/24 06:54:53;;;;;;;;;12.00;10.00;;;;;21.25;41.25;98085.94;6254974;27;97864;-70
2022/05/24 06:57:56;;;;;;;;;11.00;10.00;;;;;21.22;40.92;98081.06;6293560;27;96717;-70
2022/05/24 07:04:23;;;;;;;;;11.00;9.25;;;;;21.13;41.26;98079.06;6271419;27;97953;-73
2022/05/24 07:07:30;;;;;;;;;10.75;9.75;;;;;21.21;41.52;98068.50;6271865;27;96847;-71
2022/05/24 07:10:36;;;;;;;;;10.40;9.00;;;;;21.29;41.55;98065.81;6271749;27;96929;-70
2022/05/24 07:13:39;;;;;;;;;10.00;8.40;;;;;21.41;41.36;98059.75;6271260;27;98018;-72
2022/05/24 07:16:43;;;;;;;;;9.00;9.00;;;;;21.53;40.96;98066.31;6289569;27;96847;-71
2022/05/24 07:19:47;;;;;;;;;9.00;8.60;;;;;21.61;41.08;98059.25;6271833;27;96409;-70
2022/05/24 07:22:52;;;;;;;;;8.20;8.00;;;;;21.64;41.25;98071.53;6288986;27;96866;-70
2022/05/24 07:26:07;;;;;;;;;11.80;10.00;;;;;21.55;40.53;98055.03;6271052;27;97371;-72
2022/05/24 07:29:10;;;;;;;;;10.40;9.00;;;;;21.70;41.82;98073.03;6271122;27;98372;-70
2022/05/24 07:32:14;;;;;;;;;11.00;10.00;;;;;21.83;41.38;98085.84;6289016;27;97015;-70
2022/05/24 07:35:17;;;;;;;;;8.50;7.50;;;;;21.97;41.44;98081.13;6270671;27;99939;-71
2022/05/24 07:38:23;;;;;;;;;10.00;8.25;;;;;22.09;41.76;98080.53;6289632;27;96355;-70
2022/05/24 07:48:19;;;;;;;;;8.80;8.00;;;;;22.36;39.95;98083.88;6272970;27;96571;-72
2022/05/24 07:51:23;;;;;;;;;11.80;9.80;;;;;22.49;40.29;98079.38;6250117;27;97372;-73
2022/05/24 07:54:32;;;;;;;;;8.60;8.60;;;;;22.68;39.88;98079.09;6288906;27;96421;-72
2022/05/24 07:57:35;;;;;;;;;12.00;11.00;;;;;22.89;39.76;98080.16;6252067;27;98379;-71
2022/05/24 08:00:40;;;;;;;;;9.50;8.00;;;;;23.18;39.72;98079.53;6288644;27;96504;-70
2022/05/24 08:03:45;;;;;;;;;9.20;8.00;;;;;23.46;39.70;98078.09;6289418;27;96981;-74
2022/05/24 08:06:49;;;;;;;;;9.00;8.25;;;;;23.80;38.79;98082.72;6288929;27;97547;-70
2022/05/24 08:09:53;;;;;;;;;10.00;7.80;;;;;24.02;38.28;98077.00;6288689;27;96884;-71
2022/05/24 08:12:57;;;;;;;;;8.25;8.00;;;;;24.19;38.14;98056.88;6288721;27;96652;-71
2022/05/24 08:16:00;;;;;;;;;10.00;9.40;;;;;24.63;37.54;98077.56;6288627;27;97101;-70
2022/05/24 08:19:04;;;;;;;;;11.00;8.67;;;;;24.78;36.26;98088.00;6270000;27;98401;-70
2022/05/24 08:22:08;;;;;;;;;10.67;8.00;;;;;24.93;37.22;98087.47;6270106;27;96876;-70
2022/05/24 08:25:13;;;;;;;;;9.00;9.00;;;;;25.16;36.48;98093.47;6269482;27;96906;-71
2022/05/24 08:28:17;;;;;;;;;10.00;9.00;;;;;25.37;36.51;98090.69;6248886;27;96958;-69
2022/05/24 08:31:21;;;;;;;;;8.00;8.00;;;;;25.60;35.90;98089.25;6283185;27;96833;-68
2022/05/24 08:34:24;;;;;;;;;10.00;8.60;;;;;25.75;35.51;98096.91;6270142;27;98364;-69
2022/05/24 08:37:29;;;;;;;;;8.00;8.00;;;;;25.93;35.55;98094.75;6270020;27;97137;-70
2022/05/24 08:40:36;;;;;;;;;9.00;9.00;;;;;26.17;35.39;98092.03;6287854;27;97383;-68
2022/05/24 08:51:17;;;;;;;;;9.00;8.00;;;;;26.79;34.53;98088.16;6214686;27;97181;-70
2022/05/24 08:54:24;;;;;;;;;8.75;7.75;;;;;26.85;33.93;98084.03;6287734;27;97174;-69
2022/05/24 08:57:37;;;;;;;;;10.50;9.00;;;;;26.88;33.97;98086.09;6287879;27;97514;-68
2022/05/24 09:00:42;;;;;;;;;7.60;7.20;;;;;26.82;33.97;98090.25;6287564;27;97465;-68
2022/05/24 09:03:46;;;;;;;;;10.20;9.00;;;;;26.84;34.49;98081.59;6287745;27;96816;-71
2022/05/24 09:06:57;;;;;;;;;8.60;8.00;;;;;26.99;33.92;98084.50;6287917;27;96427;-69
2022/05/24 09:10:06;;;;;;;;;9.25;8.00;;;;;27.16;33.58;98083.44;6269431;27;97411;-69
2022/05/24 09:13:32;;;;;;;;;9.00;8.00;;;;;27.25;34.17;98078.56;6269889;27;97793;-71
2022/05/24 09:16:41;;;;;;;;;8.40;8.00;;;;;27.37;34.41;98075.72;6287674;27;97416;-67
2022/05/24 09:19:44;;;;;;;;;9.20;8.20;;;;;27.38;33.91;98054.41;6287851;27;96521;-70
2022/05/24 09:22:48;;;;;;;;;8.00;8.00;;;;;27.66;34.15;98073.81;6287681;27;97359;-68
2022/05/24 09:26:00;;;;;;;;;8.00;7.00;;;;;27.82;33.98;98082.97;6287272;27;97540;-67
2022/05/24 09:29:13;;;;;;;;;11.00;9.00;;;;;27.97;33.28;98085.75;6287651;27;96882;-71
2022/05/24 09:32:16;;;;;;;;;8.40;8.00;;;;;28.04;32.48;98081.56;6269095;27;97161;-69
2022/05/24 09:35:24;;;;;;;;;10.00;9.00;;;;;28.06;32.81;98085.59;6286991;27;96486;-70
2022/05/24 09:38:36;;;;;;;;;8.00;8.00;;;;;28.04;33.33;98093.47;6289627;27;96862;-68
2022/05/24 09:41:54;;;;;;;;;9.67;8.67;;;;;28.06;32.82;98093.91;6273477;27;97069;-67
2022/05/24 09:45:02;;;;;;;;;8.00;7.00;;;;;28.02;33.33;98102.13;6274156;27;97213;-69
2022/05/24 09:48:07;;;;;;;;;9.00;8.00;;;;;27.98;32.92;98097.66;6291979;27;96952;-69
2022/05/24 09:51:12;;;;;;;;;10.40;8.60;;;;;27.81;33.64;98093.22;6291477;27;96827;-70
2022/05/24 09:54:18;;;;;;;;;10.00;9.00;;;;;27.92;33.61;98107.38;6291634;27;96936;-67
2022/05/24 09:57:24;;;;;;;;;10.00;8.00;;;;;28.00;33.54;98104.44;6273577;27;96492;-69
2022/05/24 10:00:30;;;;;;;;;9.00;8.00;;;;;28.18;33.13;98104.97;6246773;27;96996;-68
2022/05/24 10:03:37;;;;;;;;;8.50;7.00;;;;;28.21;33.25;98103.44;6265306;27;96960;-69
2022/05/24 10:06:41;;;;;;;;;8.00;7.20;;;;;28.20;33.42;98102.63;6265795;27;97449;-70
2022/05/24 10:09:54;;;;;;;;;7.00;7.00;;;;;28.25;33.64;98107.91;6246400;27;97196;-68
2022/05/24 10:13:12;;;;;;;;;8.50;7.00;;;;;28.30;33.22;98104.88;6264922;27;96443;-68
2022/05/24 10:16:28;;;;;;;;;7.00;6.00;;;;;28.35;33.27;98095.47;6265294;27;96364;-69
2022/05/24 10:19:51;;;;;;;;;7.60;7.00;;;;;28.35;33.41;98107.38;6244681;27;98423;-69
2022/05/24 10:23:03;;;;;;;;;9.00;8.00;;;;;28.30;32.70;98104.88;6262912;27;97408;-70
2022/05/24 10:26:19;;;;;;;;;8.40;8.40;;;;;28.19;33.23;98094.69;6264781;27;96704;-68
2022/05/24 10:29:32;;;;;;;;;9.00;8.00;;;;;28.06;33.40;98098.63;6264504;27;96717;-69
2022/05/24 10:39:57;;;;;;;;;8.40;7.40;;;;;28.13;33.66;98094.13;6265100;27;97029;-68
2022/05/24 10:43:19;;;;;;;;;9.00;8.00;;;;;28.29;34.04;98092.19;6265255;27;97563;-70
2022/05/24 10:46:30;;;;;;;;;8.00;7.60;;;;;28.47;33.74;98095.41;6259120;27;97491;-68
2022/05/24 10:49:45;;;;;;;;;9.00;8.40;;;;;28.80;33.51;98084.75;6245635;27;97938;-67
2022/05/24 10:53:00;;;;;;;;;8.60;8.00;;;;;29.07;32.69;98083.00;6262935;27;97114;-68
2022/05/24 10:56:06;;;;;;;;;7.00;7.00;;;;;29.26;32.43;98085.78;6264700;27;96464;-69
2022/05/24 10:59:21;;;;;;;;;11.00;8.00;;;;;29.24;31.70;98082.56;6263870;27;97451;-68
2022/05/24 11:02:32;;;;;;;;;8.80;8.00;;;;;28.89;32.25;98076.22;6237951;27;96377;-69
2022/05/24 11:05:39;;;;;;;;;9.00;8.00;;;;;28.72;32.59;98068.31;6237178;28;99445;-70
2022/05/24 11:08:49;;;;;;;;;8.00;7.00;;;;;28.62;32.90;98077.13;6236993;28;97760;-68
2022/05/24 11:11:59;;;;;;;;;9.00;8.00;;;;;28.57;32.71;98083.75;6239499;28;97438;-70
2022/05/24 11:15:05;;;;;;;;;9.00;7.00;;;;;28.48;33.56;98088.69;6238233;28;97460;-69
2022/05/24 11:18:17;;;;;;;;;9.00;8.00;;;;;28.38;32.72;98087.28;6237575;28;96843;-69
2022/05/24 11:21:28;;;;;;;;;8.00;8.00;;;;;28.21;33.11;98073.75;6238544;28;96582;-69
2022/05/24 11:24:43;;;;;;;;;7.40;7.00;;;;;28.22;33.09;98089.22;6220515;28;97174;-69
2022/05/24 11:27:51;;;;;;;;;7.00;6.00;;;;;28.20;33.05;98085.22;6235406;27;97171;-70
2022/05/24 11:30:57;;;;;;;;;8.60;8.00;;;;;28.00;33.19;98057.34;6213249;28;96447;-67
2022/05/24 11:34:03;;;;;;;;;7.00;7.00;;;;;28.15;33.66;98082.69;6196783;28;98594;-68
2022/05/24 11:37:14;;;;;;;;;9.00;7.00;;;;;28.10;33.19;98083.72;6236294;28;96927;-70
2022/05/24 11:40:38;;;;;;;;;8.50;8.00;;;;;28.22;32.75;98089.22;6223930;28;96842;-68
2022/05/24 11:44:00;;;;;;;;;8.75;7.75;;;;;28.41;33.53;98096.81;6237370;28;97101;-68
2022/05/24 11:47:04;;;;;;;;;9.00;7.00;;;;;28.34;32.22;98080.84;6236113;28;97393;-68
2022/05/24 11:50:37;;;;;;;;;6.20;6.20;;;;;28.29;32.91;98086.66;6219024;28;97191;-71
2022/05/24 11:53:43;;;;;;;;;6.20;6.20;;;;;28.29;32.87;98083.88;6235325;27;99571;-70
2022/05/24 11:56:53;;;;;;;;;8.00;7.00;;;;;28.32;32.51;98079.56;6242989;27;97620;-70
2022/05/24 11:59:56;;;;;;;;;7.00;7.00;;;;;28.25;32.41;98068.28;6224864;27;96453;-69
2022/05/24 12:09:56;;;;;;;;;7.60;7.00;;;;;28.36;32.81;98072.94;6285302;27;96788;-68
2022/05/24 12:13:28;;;;;;;;;5.00;5.00;;;;;28.15;31.55;98057.75;6227679;27;98587;-68
2022/05/24 12:16:37;;;;;;;;;8.25;6.00;;;;;28.18;32.48;98065.34;6260909;27;96983;-68
2022/05/24 12:19:47;;;;;;;;;6.50;6.00;;;;;27.88;31.42;98062.16;6263043;27;97463;-69
2022/05/24 12:23:17;;;;;;;;;7.25;6.00;;;;;27.69;32.56;98062.84;6243899;27;96766;-69
2022/05/24 12:27:17;;;;;;;;;6.60;5.40;;;;;27.58;32.83;98058.97;6271387;27;96607;-70
2022/05/24 12:30:45;;;;;;;;;5.00;5.00;;;;;27.14;32.92;98058.88;6146121;28;98425;-67
2022/05/24 12:33:53;;;;;;;;;5.20;5.00;;;;;26.99;33.71;98056.00;6167371;28;98609;-66
2022/05/24 12:36:57;;;;;;;;;5.80;5.00;;;;;26.97;35.01;98052.81;6164624;28;96793;-67
2022/05/24 12:40:17;;;;;;;;;5.00;5.00;;;;;26.78;35.07;98047.06;6182799;28;96692;-69
2022/05/24 12:43:28;;;;;;;;;7.00;6.00;;;;;26.86;37.58;98048.88;6180036;28;97641;-69
2022/05/24 12:46:34;;;;;;;;;5.25;5.00;;;;;26.82;39.39;98029.41;6160082;28;98473;-70
2022/05/24 12:49:52;;;;;;;;;5.25;5.25;;;;;27.08;39.99;98054.72;6160370;28;96551;-68
2022/05/24 12:53:02;;;;;;;;;5.00;4.75;;;;;27.14;38.45;98053.31;6180689;28;97713;-69
2022/05/24 12:56:09;;;;;;;;;7.00;7.00;;;;;27.22;39.19;98039.72;6176173;28;96549;-70
2022/05/24 12:59:16;;;;;;;;;7.00;6.00;;;;;27.32;37.47;98047.53;6183746;28;96930;-70
2022/05/24 13:02:30;;;;;;;;;7.00;6.00;;;;;27.40;38.90;98041.84;6177470;28;98030;-69
2022/05/24 13:05:39;;;;;;;;;5.20;5.00;;;;;27.40;34.71;98043.78;6266198;27;97841;-71
2022/05/24 13:08:42;;;;;;;;;5.00;5.00;;;;;27.52;36.45;98033.50;6255027;27;98274;-72
2022/05/24 13:11:49;;;;;;;;;5.00;5.00;;;;;27.59;36.30;98038.44;6251395;27;96538;-69
2022/05/24 13:14:57;;;;;;;;;6.50;6.50;;;;;27.67;37.67;98043.00;6261612;27;96880;-71
2022/05/24 13:18:04;;;;;;;;;6.00;6.00;;;;;27.60;34.24;98042.00;6243459;27;96656;-71
2022/05/24 13:21:09;;;;;;;;;5.50;5.25;;;;;27.61;35.42;98044.44;6237042;28;96385;-70
2022/05/24 13:24:16;;;;;;;;;6.00;6.00;;;;;27.42;33.80;98031.19;6239484;27;97536;-70
2022/05/24 13:27:19;;;;;;;;;8.00;7.00;;;;;27.65;34.77;98044.53;6260710;27;97563;-71
2022/05/24 13:34:17;;;;;;;;;5.60;5.00;;;;;27.78;36.44;98044.09;6260304;27;96611;-70
2022/05/24 13:37:26;;;;;;;;;7.00;6.60;;;;;27.86;35.12;98043.13;6260476;27;97255;-72
2022/05/24 13:40:41;;;;;;;;;5.60;5.60;;;;;27.85;34.20;98049.03;6261274;27;97343;-69
2022/05/24 13:43:46;;;;;;;;;6.00;5.00;;;;;27.80;34.18;98044.56;6259853;27;96680;-70
2022/05/24 13:46:54;;;;;;;;;5.00;5.00;;;;;27.87;33.53;98044.72;6257863;27;96901;-72
2022/05/24 13:49:58;;;;;;;;;7.00;6.00;;;;;27.91;32.77;98040.09;6260466;27;97465;-68
2022/05/24 13:53:04;;;;;;;;;6.00;6.00;;;;;28.04;33.57;98037.25;6235948;27;96439;-71
2022/05/24 13:56:18;;;;;;;;;6.00;6.00;;;;;28.13;33.20;98043.44;6255856;27;98536;-70
2022/05/24 13:59:24;;;;;;;;;6.00;6.00;;;;;28.30;34.62;98051.38;6259209;27;97544;-71
2022/05/24 14:02:29;;;;;;;;;5.00;5.00;;;;;28.30;33.32;98048.63;6286715;27;96459;-69
2022/05/24 14:05:35;;;;;;;;;6.20;6.00;;;;;28.41;33.88;98058.00;6268344;27;96547;-70
2022/05/24 14:08:40;;;;;;;;;5.75;5.00;;;;;28.51;34.00;98048.34;6286660;27;96364;-71
2022/05/24 14:11:51;;;;;;;;;5.00;5.00;;;;;28.55;33.15;98043.69;6284673;27;97618;-70
2022/05/24 14:14:55;;;;;;;;;7.00;7.00;;;;;28.58;32.82;98052.09;6283435;27;97521;-69
2022/05/24 14:17:59;;;;;;;;;7.00;7.00;;;;;28.65;33.38;98051.44;6264264;27;98347;-71
2022/05/24 14:21:06;;;;;;;;;8.00;7.00;;;;;28.71;32.70;98048.06;6283886;27;96495;-69
2022/05/24 14:24:13;;;;;;;;;7.20;7.00;;;;;28.82;32.23;98051.91;6283959;27;97092;-69
2022/05/24 14:27:17;;;;;;;;;7.20;7.00;;;;;28.74;30.78;98041.00;6289930;27;98241;-71
2022/05/24 14:30:21;;;;;;;;;7.00;6.40;;;;;28.79;32.73;98052.63;6290756;27;97406;-69
2022/05/24 14:33:26;;;;;;;;;7.80;7.40;;;;;28.83;32.75;98056.28;6290304;27;97381;-69
2022/05/24 14:36:29;;;;;;;;;7.00;7.00;;;;;28.83;31.14;98052.72;6262856;27;98656;-69
2022/05/24 14:39:33;;;;;;;;;6.00;5.50;;;;;28.78;31.84;98051.00;6245730;27;98644;-68
2022/05/24 14:42:36;;;;;;;;;6.00;5.80;;;;;28.69;31.09;98055.09;6246488;27;96570;-70
2022/05/24 14:45:45;;;;;;;;;6.00;5.00;;;;;28.52;32.06;98044.41;6246045;27;100561;-70
2022/05/24 14:48:51;;;;;;;;;5.75;5.75;;;;;28.43;31.38;98064.00;6271412;27;96436;-70
2022/05/24 14:51:58;;;;;;;;;6.80;5.20;;;;;28.36;32.55;98061.06;6289719;27;96505;-72
2022/05/24 14:55:02;;;;;;;;;6.00;5.00;;;;;28.22;31.52;98063.47;6270792;27;98052;-71
2022/05/24 14:58:06;;;;;;;;;5.60;5.60;;;;;28.09;32.63;98075.78;6289588;27;97589;-71
2022/05/24 15:01:09;;;;;;;;;6.00;6.00;;;;;28.02;32.81;98076.38;6289171;27;97052;-71
2022/05/24 15:04:14;;;;;;;;;6.40;6.00;;;;;27.92;32.73;98071.38;6271237;27;97369;-70
2022/05/24 15:17:37;;;;;;;;;6.00;5.50;;;;;27.27;32.54;98045.78;6270498;27;97518;-69
2022/05/24 15:20:46;;;;;;;;;6.40;6.00;;;;;27.25;33.30;98061.13;6268356;27;98589;-71
2022/05/24 15:23:54;;;;;;;;;5.60;5.60;;;;;27.34;33.83;98061.81;6267778;27;97462;-70
2022/05/24 15:27:02;;;;;;;;;5.00;5.00;;;;;27.35;33.61;98068.94;6267319;27;96918;-69
2022/05/24 15:30:08;;;;;;;;;7.00;6.00;;;;;27.34;34.01;98076.44;6286763;27;97443;-70
2022/05/24 15:33:12;;;;;;;;;7.00;6.00;;;;;27.29;33.43;98071.16;6251483;27;96680;-71
2022/05/24 15:36:17;;;;;;;;;4.00;4.00;;;;;27.18;33.63;98056.19;6276488;27;98064;-72
2022/05/24 15:39:27;;;;;;;;;6.00;5.00;;;;;27.26;33.83;98074.63;6269359;27;97278;-69